createdAt,value
2019-05-26T00:01:10.044Z,16.10
2019-05-26T00:03:38.817Z,16.10
2019-05-26T00:06:15.520Z,16.00
2019-05-26T00:08:43.777Z,16.00
2019-05-26T00:11:24.383Z,16.00
2019-05-26T00:13:59.693Z,16.00
2019-05-26T00:16:30.698Z,16.00
2019-05-26T00:19:09.544Z,15.90
2019-05-26T00:21:37.762Z,15.80
2019-05-26T00:24:05.986Z,15.80
2019-05-26T00:26:34.161Z,15.70
2019-05-26T00:29:02.634Z,15.80
2019-05-26T00:31:32.658Z,15.70
2019-05-26T00:34:04.936Z,15.70
2019-05-26T00:36:39.573Z,15.60
2019-05-26T00:39:12.695Z,15.60
2019-05-26T00:41:42.293Z,15.60
2019-05-26T00:44:10.420Z,15.50
2019-05-26T00:46:38.709Z,15.50
2019-05-26T00:49:06.983Z,15.50
2019-05-26T00:51:35.292Z,15.50
2019-05-26T00:54:03.551Z,15.50
2019-05-26T00:56:31.843Z,15.50
2019-05-26T00:59:00.210Z,15.40
2019-05-26T01:01:28.499Z,15.40
2019-05-26T01:03:56.730Z,15.40
2019-05-26T01:06:28.404Z,15.30
2019-05-26T01:09:06.132Z,15.30
2019-05-26T01:11:37.056Z,15.30
2019-05-26T01:14:12.072Z,15.20
2019-05-26T01:16:55.047Z,15.30
2019-05-26T01:19:21.438Z,15.20
2019-05-26T01:21:49.838Z,15.10
2019-05-26T01:24:21.879Z,15.10
2019-05-26T01:26:53.864Z,15.00
2019-05-26T01:29:22.125Z,14.80
2019-05-26T01:31:52.340Z,14.70
2019-05-26T01:34:20.718Z,14.70
2019-05-26T01:36:55.547Z,14.70
2019-05-26T01:39:25.003Z,14.70
2019-05-26T01:42:02.065Z,14.80
2019-05-26T01:44:39.443Z,14.80
2019-05-26T01:47:12.919Z,14.80
2019-05-26T01:49:47.139Z,14.70
2019-05-26T01:52:21.599Z,14.70
2019-05-26T01:54:57.018Z,14.70
2019-05-26T01:57:34.264Z,14.60
2019-05-26T02:00:05.354Z,14.70
2019-05-26T02:02:41.239Z,14.70
2019-05-26T02:05:09.441Z,14.70
2019-05-26T02:07:44.812Z,14.60
2019-05-26T02:10:19.446Z,14.60
2019-05-26T02:12:55.423Z,14.60
2019-05-26T02:15:31.100Z,14.60
2019-05-26T02:18:06.935Z,14.60
2019-05-26T02:20:39.196Z,14.60
2019-05-26T02:23:12.582Z,14.50
2019-05-26T02:25:45.463Z,14.40
2019-05-26T02:28:19.539Z,14.50
2019-05-26T02:30:57.686Z,14.50
2019-05-26T02:33:28.382Z,14.50
2019-05-26T02:35:56.704Z,14.40
2019-05-26T02:38:26.224Z,14.10
2019-05-26T02:40:54.791Z,14.00
2019-05-26T02:43:23.127Z,14.10
2019-05-26T02:45:51.338Z,14.10
2019-05-26T02:48:21.666Z,14.10
2019-05-26T02:50:49.952Z,14.10
2019-05-26T02:53:24.504Z,14.10
2019-05-26T02:55:53.112Z,14.00
2019-05-26T02:58:24.506Z,13.90
2019-05-26T03:00:52.608Z,13.90
2019-05-26T03:03:21.890Z,13.80
2019-05-26T03:05:53.241Z,13.80
2019-05-26T03:08:26.318Z,13.80
2019-05-26T03:10:59.622Z,13.80
2019-05-26T03:13:41.486Z,13.80
2019-05-26T03:16:12.854Z,13.80
2019-05-26T03:18:43.292Z,13.70
2019-05-26T03:21:20.798Z,13.60
2019-05-26T03:23:53.162Z,13.70
2019-05-26T03:26:27.288Z,13.60
2019-05-26T03:29:04.161Z,13.60
2019-05-26T03:31:39.914Z,13.60
2019-05-26T03:34:14.074Z,13.60
2019-05-26T03:36:42.341Z,13.60
2019-05-26T03:39:10.518Z,13.60
2019-05-26T03:41:40.432Z,13.50
2019-05-26T03:44:08.681Z,13.50
2019-05-26T03:46:36.857Z,13.50
2019-05-26T03:49:14.897Z,13.50
2019-05-26T03:51:48.351Z,13.40
2019-05-26T03:54:21.238Z,13.40
2019-05-26T03:56:55.030Z,13.40
2019-05-26T03:59:32.056Z,13.40
2019-05-26T04:02:04.661Z,13.40
2019-05-26T04:04:38.949Z,13.30
2019-05-26T04:07:13.503Z,13.30
2019-05-26T04:10:04.090Z,13.30
2019-05-26T04:12:19.962Z,13.20
2019-05-26T04:14:48.282Z,13.20
2019-05-26T04:17:16.532Z,13.20
2019-05-26T04:19:46.543Z,13.20
2019-05-26T04:22:14.773Z,13.20
2019-05-26T04:24:43.788Z,13.20
2019-05-26T04:27:12.046Z,13.20
2019-05-26T04:29:40.401Z,13.20
2019-05-26T04:32:08.580Z,13.10
2019-05-26T04:34:39.264Z,13.10
2019-05-26T04:37:11.784Z,13.10
2019-05-26T04:39:47.294Z,13.10
2019-05-26T04:42:21.303Z,13.10
2019-05-26T04:44:55.273Z,13.20
2019-05-26T04:47:30.898Z,13.20
2019-05-26T04:50:05.158Z,13.20
2019-05-26T04:52:38.069Z,13.20
2019-05-26T04:55:18.691Z,13.20
2019-05-26T04:57:48.352Z,13.30
2019-05-26T05:00:21.628Z,13.30
2019-05-26T05:02:57.543Z,13.30
2019-05-26T05:05:31.850Z,13.30
2019-05-26T05:08:05.387Z,13.30
2019-05-26T05:10:42.601Z,13.30
2019-05-26T05:13:10.608Z,13.40
2019-05-26T05:15:38.951Z,13.30
2019-05-26T05:18:09.761Z,13.40
2019-05-26T05:20:37.905Z,13.40
2019-05-26T05:23:06.339Z,13.40
2019-05-26T05:25:38.908Z,13.50
2019-05-26T05:28:15.133Z,13.60
2019-05-26T05:30:49.295Z,13.60
2019-05-26T05:33:23.319Z,13.70
2019-05-26T05:35:59.403Z,13.70
2019-05-26T05:38:27.637Z,13.80
2019-05-26T05:40:59.974Z,13.90
2019-05-26T05:43:25.626Z,14.00
2019-05-26T05:45:53.807Z,14.00
2019-05-26T05:48:23.563Z,14.10
2019-05-26T05:50:56.910Z,14.10
2019-05-26T05:53:31.633Z,14.20
2019-05-26T05:56:09.647Z,14.30
2019-05-26T05:58:41.545Z,14.30
2019-05-26T06:01:09.826Z,14.40
2019-05-26T06:03:39.309Z,14.40
2019-05-26T06:06:09.608Z,14.50
2019-05-26T06:08:37.673Z,14.70
2019-05-26T06:11:15.924Z,14.70
2019-05-26T06:13:40.748Z,14.80
2019-05-26T06:16:11.345Z,14.70
2019-05-26T06:18:43.603Z,14.70
2019-05-26T06:21:19.437Z,14.70
2019-05-26T06:23:47.571Z,14.90
2019-05-26T06:26:15.857Z,15.00
2019-05-26T06:28:43.992Z,15.00
2019-05-26T06:31:12.310Z,15.00
2019-05-26T06:33:45.805Z,15.00
2019-05-26T06:36:24.884Z,15.10
2019-05-26T06:38:59.567Z,15.20
2019-05-26T06:41:33.835Z,15.20
2019-05-26T06:44:04.878Z,15.20
2019-05-26T06:46:37.463Z,15.20
2019-05-26T06:49:14.383Z,15.60
2019-05-26T06:51:52.582Z,15.60
2019-05-26T06:54:24.856Z,15.70
2019-05-26T06:57:01.853Z,15.60
2019-05-26T06:59:35.689Z,15.70
2019-05-26T07:02:15.466Z,15.40
2019-05-26T07:04:48.286Z,15.50
2019-05-26T07:07:16.525Z,15.50
2019-05-26T07:09:51.838Z,15.50
2019-05-26T07:12:30.052Z,15.60
2019-05-26T07:15:19.716Z,15.80
2019-05-26T07:17:58.656Z,15.60
2019-05-26T07:20:26.995Z,15.70
2019-05-26T07:22:55.165Z,15.70
2019-05-26T07:25:23.292Z,15.70
2019-05-26T07:27:58.775Z,15.80
2019-05-26T07:30:31.515Z,15.90
2019-05-26T07:33:08.802Z,15.70
2019-05-26T07:35:42.705Z,15.70
2019-05-26T07:38:16.876Z,15.80
2019-05-26T07:40:52.185Z,15.80
2019-05-26T07:43:28.922Z,15.90
2019-05-26T07:46:07.770Z,16.10
2019-05-26T07:48:40.676Z,16.40
2019-05-26T07:51:11.828Z,16.30
2019-05-26T07:53:44.946Z,16.20
2019-05-26T07:56:14.422Z,16.30
2019-05-26T07:58:44.436Z,16.40
2019-05-26T08:01:12.511Z,16.70
2019-05-26T08:03:40.788Z,16.80
2019-05-26T08:06:16.676Z,16.60
2019-05-26T08:08:44.894Z,16.50
2019-05-26T08:11:19.721Z,16.60
2019-05-26T08:13:55.869Z,16.60
2019-05-26T08:16:28.004Z,16.80
2019-05-26T08:19:01.328Z,16.90
2019-05-26T08:21:29.573Z,16.90
2019-05-26T08:23:59.703Z,16.90
2019-05-26T08:26:29.316Z,16.90
2019-05-26T08:28:57.714Z,17.00
2019-05-26T08:31:25.987Z,17.00
2019-05-26T08:34:00.419Z,17.20
2019-05-26T08:36:33.911Z,17.40
2019-05-26T08:39:02.576Z,17.40
2019-05-26T08:41:32.104Z,17.50
2019-05-26T08:44:00.488Z,17.60
2019-05-26T08:46:28.787Z,17.80
2019-05-26T08:49:31.722Z,17.90
2019-05-26T08:52:05.226Z,18.10
2019-05-26T08:54:43.887Z,18.10
2019-05-26T08:57:15.202Z,18.10
2019-05-26T08:59:46.333Z,18.00
2019-05-26T09:02:17.780Z,17.90
2019-05-26T09:04:49.985Z,17.80
2019-05-26T09:07:20.291Z,18.20
2019-05-26T09:09:52.673Z,18.50
2019-05-26T09:12:21.058Z,18.60
2019-05-26T09:14:49.210Z,18.50
2019-05-26T09:17:18.731Z,18.60
2019-05-26T09:19:49.785Z,18.90
2019-05-26T09:22:28.472Z,18.40
2019-05-26T09:24:59.044Z,18.10
2019-05-26T09:27:33.377Z,18.20
2019-05-26T09:30:03.471Z,18.00
2019-05-26T09:32:42.882Z,18.00
2019-05-26T09:35:19.900Z,18.00
2019-05-26T09:37:58.243Z,18.10
2019-05-26T09:40:28.727Z,18.20
2019-05-26T09:43:14.970Z,18.20
2019-05-26T09:45:36.552Z,17.90
2019-05-26T09:48:11.804Z,18.00
2019-05-26T09:50:51.128Z,18.10
2019-05-26T09:53:24.519Z,18.00
2019-05-26T09:55:54.515Z,18.20
2019-05-26T09:58:26.402Z,18.40
2019-05-26T10:01:04.224Z,18.40
2019-05-26T10:03:42.731Z,18.60
2019-05-26T10:06:16.544Z,18.80
2019-05-26T10:08:47.975Z,18.50
2019-05-26T10:11:20.256Z,18.40
2019-05-26T10:13:59.184Z,18.20
2019-05-26T10:16:28.601Z,18.10
2019-05-26T10:19:00.031Z,18.30
2019-05-26T10:21:38.908Z,18.40
2019-05-26T10:24:16.556Z,18.30
2019-05-26T10:26:50.104Z,18.10
2019-05-26T10:29:28.156Z,18.40
2019-05-26T10:31:56.570Z,18.80
2019-05-26T10:34:31.973Z,18.50
2019-05-26T10:37:12.235Z,18.70
2019-05-26T10:39:45.216Z,18.70
2019-05-26T10:42:20.765Z,18.60
2019-05-26T10:44:52.578Z,18.70
2019-05-26T10:47:30.270Z,18.60
2019-05-26T10:50:04.955Z,19.10
2019-05-26T10:52:38.989Z,19.20
2019-05-26T10:55:18.716Z,18.90
2019-05-26T10:57:46.909Z,19.10
2019-05-26T11:00:21.719Z,19.40
2019-05-26T11:02:57.094Z,19.40
2019-05-26T11:05:32.654Z,19.50
2019-05-26T11:08:05.194Z,19.50
2019-05-26T11:10:41.687Z,19.80
2019-05-26T11:13:15.911Z,19.70
2019-05-26T11:15:53.301Z,19.90
2019-05-26T11:18:27.304Z,20.20
2019-05-26T11:21:04.799Z,20.20
2019-05-26T11:23:34.330Z,20.40
2019-05-26T11:26:11.472Z,20.00
2019-05-26T11:28:43.182Z,19.60
2019-05-26T11:31:21.252Z,19.60
2019-05-26T11:33:54.588Z,19.40
2019-05-26T11:36:28.547Z,19.30
2019-05-26T11:38:56.818Z,19.20
2019-05-26T11:41:28.507Z,19.10
2019-05-26T11:43:58.083Z,19.10
2019-05-26T11:46:28.593Z,19.00
2019-05-26T11:48:56.844Z,19.10
2019-05-26T11:51:25.081Z,19.20
2019-05-26T11:53:58.257Z,19.30
2019-05-26T11:56:34.603Z,19.10
2019-05-26T11:59:10.733Z,19.10
2019-05-26T12:01:43.571Z,19.10
2019-05-26T12:04:17.253Z,19.00
2019-05-26T12:06:45.634Z,19.20
2019-05-26T12:09:13.834Z,19.60
2019-05-26T12:11:43.524Z,19.60
2019-05-26T12:14:15.125Z,19.40
2019-05-26T12:16:43.514Z,19.40
2019-05-26T12:19:16.873Z,19.40
2019-05-26T12:21:48.519Z,19.50
2019-05-26T12:24:23.235Z,19.60
2019-05-26T12:26:57.405Z,19.70
2019-05-26T12:29:31.767Z,19.50
2019-05-26T12:32:04.967Z,19.30
2019-05-26T12:34:40.313Z,19.20
2019-05-26T12:37:15.962Z,19.00
2019-05-26T12:39:54.514Z,19.00
2019-05-26T12:42:25.618Z,18.90
2019-05-26T12:45:06.112Z,19.00
2019-05-26T12:47:34.468Z,19.10
2019-05-26T12:50:07.768Z,19.10
2019-05-26T12:52:44.749Z,19.00
2019-05-26T12:55:17.653Z,19.10
2019-05-26T12:57:53.480Z,19.40
2019-05-26T13:00:47.086Z,19.40
2019-05-26T13:03:04.088Z,19.20
2019-05-26T13:05:35.330Z,19.10
2019-05-26T13:08:25.208Z,19.00
2019-05-26T13:10:55.433Z,19.10
2019-05-26T13:13:26.156Z,19.00
2019-05-26T13:15:56.624Z,18.90
2019-05-26T13:18:26.604Z,19.00
2019-05-26T13:21:08.616Z,19.30
2019-05-26T13:23:39.579Z,19.60
2019-05-26T13:26:17.857Z,19.80
2019-05-26T13:28:50.182Z,19.90
2019-05-26T13:31:25.214Z,20.00
2019-05-26T13:34:00.865Z,19.90
2019-05-26T13:36:29.124Z,19.90
2019-05-26T13:38:58.886Z,20.00
2019-05-26T13:41:27.296Z,19.80
2019-05-26T13:43:57.200Z,19.90
2019-05-26T13:46:25.573Z,19.90
2019-05-26T13:48:53.744Z,19.80
2019-05-26T13:51:38.100Z,19.90
2019-05-26T13:54:06.479Z,19.60
2019-05-26T13:56:37.656Z,19.60
2019-05-26T13:59:18.516Z,19.50
2019-05-26T14:01:51.405Z,19.60
2019-05-26T14:04:23.079Z,19.50
2019-05-26T14:07:02.708Z,19.40
2019-05-26T14:09:35.993Z,19.40
2019-05-26T14:12:08.744Z,19.30
2019-05-26T14:14:39.195Z,19.40
2019-05-26T14:17:11.143Z,19.30
2019-05-26T14:19:50.189Z,19.40
2019-05-26T14:22:25.840Z,19.60
2019-05-26T14:25:00.681Z,19.60
2019-05-26T14:27:39.147Z,19.70
2019-05-26T14:30:10.882Z,19.50
2019-05-26T14:32:39.204Z,19.40
2019-05-26T14:35:13.075Z,19.20
2019-05-26T14:37:41.335Z,19.20
2019-05-26T14:40:23.309Z,19.10
2019-05-26T14:42:55.535Z,19.20
2019-05-26T14:45:51.980Z,19.20
2019-05-26T14:48:07.280Z,19.20
2019-05-26T14:50:40.279Z,19.50
2019-05-26T14:53:08.070Z,19.60
2019-05-26T14:55:36.207Z,19.70
2019-05-26T14:58:15.838Z,19.70
2019-05-26T15:00:39.847Z,19.50
2019-05-26T15:03:10.287Z,19.50
2019-05-26T15:05:43.544Z,19.70
2019-05-26T15:08:19.220Z,19.90
2019-05-26T15:10:57.716Z,19.90
2019-05-26T15:13:30.257Z,19.80
2019-05-26T15:16:09.930Z,19.60
2019-05-26T15:18:36.855Z,19.30
2019-05-26T15:21:09.874Z,19.20
2019-05-26T15:23:49.006Z,19.00
2019-05-26T15:26:19.328Z,19.00
2019-05-26T15:28:57.647Z,19.00
2019-05-26T15:31:30.642Z,19.00
2019-05-26T15:34:01.290Z,18.90
2019-05-26T15:36:32.019Z,18.90
2019-05-26T15:39:00.173Z,18.80
2019-05-26T15:41:29.975Z,18.90
2019-05-26T15:43:59.394Z,19.00
2019-05-26T15:46:27.669Z,18.90
2019-05-26T15:49:07.957Z,18.80
2019-05-26T15:51:42.820Z,18.80
2019-05-26T15:54:13.388Z,18.70
2019-05-26T15:56:41.473Z,18.70
2019-05-26T15:59:21.786Z,18.70
2019-05-26T16:01:54.820Z,18.70
2019-05-26T16:04:28.939Z,18.60
2019-05-26T16:07:06.077Z,18.70
2019-05-26T16:09:33.872Z,18.60
2019-05-26T16:12:02.276Z,18.60
2019-05-26T16:14:30.755Z,18.60
2019-05-26T16:17:04.827Z,18.60
2019-05-26T16:19:37.452Z,18.60
2019-05-26T16:22:05.921Z,18.50
2019-05-26T16:24:41.006Z,18.60
2019-05-26T16:27:19.082Z,18.60
2019-05-26T16:29:47.761Z,18.60
2019-05-26T16:32:21.979Z,18.60
2019-05-26T16:34:52.378Z,18.50
2019-05-26T16:37:20.757Z,18.40
2019-05-26T16:39:57.135Z,18.40
2019-05-26T16:42:49.751Z,18.50
2019-05-26T16:45:18.724Z,18.60
2019-05-26T16:47:49.255Z,18.70
2019-05-26T16:50:20.694Z,18.70
2019-05-26T16:52:54.387Z,18.60
2019-05-26T16:55:24.846Z,18.50
2019-05-26T16:58:06.760Z,18.40
2019-05-26T17:00:40.437Z,18.40
2019-05-26T17:03:10.122Z,18.50
2019-05-26T17:05:43.950Z,18.60
2019-05-26T17:08:19.205Z,18.70
2019-05-26T17:10:56.514Z,18.70
2019-05-26T17:13:32.873Z,18.70
2019-05-26T17:15:59.628Z,18.70
2019-05-26T17:18:36.238Z,18.80
2019-05-26T17:21:10.354Z,18.90
2019-05-26T17:23:44.287Z,18.90
2019-05-26T17:26:17.649Z,18.80
2019-05-26T17:28:59.828Z,18.70
2019-05-26T17:31:30.074Z,18.70
2019-05-26T17:34:04.701Z,18.70
2019-05-26T17:36:42.042Z,18.60
2019-05-26T17:39:24.193Z,18.50
2019-05-26T17:41:59.056Z,18.40
2019-05-26T17:44:26.561Z,18.40
2019-05-26T17:47:00.125Z,18.40
2019-05-26T17:49:34.332Z,18.40
2019-05-26T17:52:06.471Z,18.20
2019-05-26T17:54:41.581Z,18.20
2019-05-26T17:57:09.754Z,18.20
2019-05-26T17:59:37.938Z,18.10
2019-05-26T18:02:08.002Z,18.20
2019-05-26T18:04:36.391Z,18.20
2019-05-26T18:07:06.036Z,18.20
2019-05-26T18:09:44.206Z,18.10
2019-05-26T18:12:13.712Z,18.20
2019-05-26T18:14:52.835Z,18.10
2019-05-26T18:17:24.709Z,18.20
2019-05-26T18:19:57.277Z,18.20
2019-05-26T18:22:32.826Z,18.20
2019-05-26T18:25:12.283Z,18.20
2019-05-26T18:27:53.089Z,18.10
2019-05-26T18:30:25.789Z,18.10
2019-05-26T18:32:56.293Z,18.10
2019-05-26T18:35:26.905Z,18.00
2019-05-26T18:38:03.395Z,17.90
2019-05-26T18:40:42.638Z,17.80
2019-05-26T18:43:12.704Z,17.90
2019-05-26T18:45:55.072Z,18.00
2019-05-26T18:48:16.634Z,17.90
2019-05-26T18:50:53.706Z,17.90
2019-05-26T18:53:23.477Z,17.80
2019-05-26T18:55:54.253Z,17.80
2019-05-26T18:58:29.196Z,17.80
2019-05-26T19:01:09.374Z,17.70
2019-05-26T19:03:49.585Z,17.70
2019-05-26T19:06:36.486Z,17.70
2019-05-26T19:09:12.269Z,17.60
2019-05-26T19:11:42.609Z,17.60
2019-05-26T19:14:12.831Z,17.60
2019-05-26T19:16:41.276Z,17.60
2019-05-26T19:19:12.178Z,17.60
2019-05-26T19:21:40.742Z,17.60
2019-05-26T19:24:09.299Z,17.50
2019-05-26T19:26:37.799Z,17.60
2019-05-26T19:29:09.138Z,17.60
2019-05-26T19:31:51.094Z,17.50
2019-05-26T19:34:19.341Z,17.40
2019-05-26T19:36:47.648Z,17.40
2019-05-26T19:39:15.960Z,17.30
2019-05-26T19:41:52.528Z,17.20
2019-05-26T19:44:26.608Z,17.20
2019-05-26T19:47:01.791Z,17.00
2019-05-26T19:49:45.434Z,16.90
2019-05-26T19:52:19.640Z,16.80
2019-05-26T19:54:48.085Z,16.90
2019-05-26T19:57:23.673Z,16.90
2019-05-26T19:59:53.907Z,16.90
2019-05-26T20:02:29.309Z,16.80
2019-05-26T20:05:02.361Z,16.80
2019-05-26T20:07:41.077Z,16.80
2019-05-26T20:10:13.010Z,16.70
2019-05-26T20:12:47.085Z,16.70
2019-05-26T20:15:28.193Z,16.60
2019-05-26T20:18:01.371Z,16.60
2019-05-26T20:20:37.048Z,16.60
2019-05-26T20:23:05.608Z,16.60
2019-05-26T20:25:42.239Z,16.60
2019-05-26T20:28:12.764Z,16.50
2019-05-26T20:30:51.343Z,16.50
2019-05-26T20:33:34.948Z,16.50
2019-05-26T20:36:05.094Z,16.40
2019-05-26T20:38:37.471Z,16.40
2019-05-26T20:41:08.124Z,16.40
2019-05-26T20:43:42.523Z,16.30
2019-05-26T20:46:35.042Z,16.40
2019-05-26T20:49:04.572Z,16.30
2019-05-26T20:51:32.768Z,16.30
2019-05-26T20:54:01.260Z,16.30
2019-05-26T20:56:35.420Z,16.30
2019-05-26T20:59:10.625Z,16.20
2019-05-26T21:01:44.699Z,16.20
2019-05-26T21:04:16.587Z,16.10
2019-05-26T21:06:50.787Z,16.00
2019-05-26T21:09:23.189Z,15.90
2019-05-26T21:12:02.321Z,15.80
2019-05-26T21:14:48.933Z,15.70
2019-05-26T21:17:18.034Z,15.60
2019-05-26T21:19:46.608Z,15.50
2019-05-26T21:22:24.192Z,15.40
2019-05-26T21:24:56.431Z,15.30
2019-05-26T21:27:34.158Z,15.20
2019-05-26T21:30:12.066Z,15.20
2019-05-26T21:32:38.031Z,15.00
2019-05-26T21:35:08.705Z,15.20
2019-05-26T21:37:39.555Z,15.20
2019-05-26T21:40:21.369Z,15.20
2019-05-26T21:42:57.333Z,15.10
2019-05-26T21:45:43.392Z,15.00
2019-05-26T21:48:13.393Z,14.90
2019-05-26T21:50:45.300Z,14.70
2019-05-26T21:53:22.745Z,14.30
2019-05-26T21:55:52.281Z,14.30
2019-05-26T21:58:25.828Z,14.10
2019-05-26T22:01:04.882Z,14.00
2019-05-26T22:03:37.792Z,13.90
2019-05-26T22:06:10.691Z,13.60
2019-05-26T22:08:46.501Z,13.60
2019-05-26T22:11:20.132Z,13.50
2019-05-26T22:14:02.870Z,13.60
2019-05-26T22:16:31.155Z,13.50
2019-05-26T22:19:07.982Z,13.50
2019-05-26T22:21:38.979Z,13.40
2019-05-26T22:24:15.614Z,13.30
2019-05-26T22:26:44.111Z,13.10
2019-05-26T22:29:13.412Z,13.00
2019-05-26T22:31:46.715Z,12.90
2019-05-26T22:34:15.298Z,12.70
2019-05-26T22:36:43.732Z,12.60
2019-05-26T22:39:14.194Z,12.50
2019-05-26T22:41:45.841Z,12.40
2019-05-26T22:44:21.255Z,12.20
2019-05-26T22:46:59.090Z,12.20
2019-05-26T22:49:36.378Z,12.30
2019-05-26T22:52:04.728Z,12.20
2019-05-26T22:54:43.240Z,12.10
2019-05-26T22:57:17.660Z,12.00
2019-05-26T22:59:55.987Z,11.90
2019-05-26T23:02:24.717Z,12.00
2019-05-26T23:04:57.865Z,11.90
2019-05-26T23:07:32.208Z,11.80
2019-05-26T23:10:15.325Z,11.80
2019-05-26T23:12:59.872Z,11.70
2019-05-26T23:15:29.839Z,11.70
2019-05-26T23:17:58.291Z,11.80
2019-05-26T23:20:28.825Z,11.80
2019-05-26T23:23:11.923Z,11.70
2019-05-26T23:25:44.018Z,11.60
2019-05-26T23:28:16.668Z,11.50
2019-05-26T23:30:48.206Z,11.40
2019-05-26T23:33:17.930Z,11.30
2019-05-26T23:35:52.379Z,11.20
2019-05-26T23:38:28.088Z,11.10
2019-05-26T23:40:59.451Z,11.10
2019-05-26T23:43:33.454Z,11.00
2019-05-26T23:46:10.781Z,11.00
2019-05-26T23:48:41.983Z,11.00
2019-05-26T23:51:13.955Z,10.90
2019-05-26T23:53:52.028Z,10.80
2019-05-26T23:56:25.373Z,10.70
2019-05-26T23:59:02.961Z,10.70
